Charles W. Baker (2M8)
Millington, TN
Field Elevation: 247
Lat: 35°16.74N  Long: 89°55.89W
CTAF/Unicom Freq: 122.8000
   
     For Weather-by-Phone, call 901-873-0903
Weather Advisories
2019-03-24   20:27 Z
Altimeter 30.06" Hg
Wind 240° @ 13 KT
Gusts 20 KT
Visibility 10 SM
Ceiling SCT042 BKN220
Temperature 21° C (70° F)
Dewpoint 7° C (45° F)
Relative Humidity 42%
Density Altitude --
Condensation Altitude 6,900 feet
Wind and Runways
Indicated Runway = 18
Headwind = 6 kt
Crosswind = 11 kt
History
 
 
 
More Info
NOAA Forecast
 
 
About Us
Belfort Instrument
 
 
FAA Disclaimer: The data displayed is for advisory purposes only and is not to be used for flight planning or operations. For official data, please call 901-873-0903 to hear the current automated AWOS voice message.
  METAR 2M8 242027Z AUTO 24013G20KT 10 SM SCT042 BKN220 21/07 A3006